createdAt,value
2016-10-18T00:00:40.298Z,0
2016-10-18T00:01:40.337Z,0
2016-10-18T00:02:40.344Z,0
2016-10-18T00:03:40.459Z,0
2016-10-18T00:04:40.520Z,0
2016-10-18T00:05:40.565Z,0
2016-10-18T00:06:41.094Z,0
2016-10-18T00:07:40.759Z,0
2016-10-18T00:08:40.735Z,0
2016-10-18T00:09:41.290Z,0
2016-10-18T00:10:40.838Z,0
2016-10-18T00:11:40.952Z,0
2016-10-18T00:12:40.916Z,0
2016-10-18T00:13:41.034Z,0
2016-10-18T00:14:41.004Z,0
2016-10-18T00:15:41.101Z,0
2016-10-18T00:16:41.193Z,0
2016-10-18T00:17:41.203Z,0
2016-10-18T00:18:41.312Z,0
2016-10-18T00:19:41.339Z,0
2016-10-18T00:20:41.478Z,0
2016-10-18T00:21:41.439Z,0
2016-10-18T00:22:41.469Z,0
2016-10-18T00:23:41.568Z,0
2016-10-18T00:24:42.140Z,0
2016-10-18T00:25:41.659Z,0
2016-10-18T00:26:41.735Z,0
2016-10-18T00:27:42.273Z,0
2016-10-18T00:28:41.815Z,0
2016-10-18T00:29:41.903Z,0
2016-10-18T00:30:42.500Z,0
2016-10-18T00:31:42.006Z,0
2016-10-18T00:32:42.008Z,0
2016-10-18T00:33:42.080Z,0
2016-10-18T00:34:42.174Z,0
2016-10-18T00:35:42.220Z,0
2016-10-18T00:36:42.257Z,0
2016-10-18T00:37:42.397Z,0
2016-10-18T00:38:42.358Z,0
2016-10-18T00:39:42.422Z,0
2016-10-18T00:40:42.442Z,0
2016-10-18T00:41:42.555Z,0
2016-10-18T00:42:42.604Z,0
2016-10-18T00:43:42.638Z,0
2016-10-18T00:44:42.693Z,0
2016-10-18T00:45:42.721Z,0
2016-10-18T00:46:42.788Z,0
2016-10-18T00:47:42.820Z,0
2016-10-18T00:48:42.893Z,0
2016-10-18T00:49:43.011Z,0
2016-10-18T00:50:43.024Z,0
2016-10-18T00:51:43.590Z,0
2016-10-18T00:52:43.111Z,0
2016-10-18T00:53:43.218Z,0
2016-10-18T00:54:43.310Z,0
2016-10-18T00:55:43.344Z,0
2016-10-18T00:56:43.347Z,0
2016-10-18T00:57:43.371Z,0
2016-10-18T00:58:43.479Z,0
2016-10-18T00:59:43.525Z,0
2016-10-18T01:00:43.560Z,0
2016-10-18T01:01:43.628Z,0
2016-10-18T01:02:43.676Z,0
2016-10-18T01:03:43.752Z,0
2016-10-18T01:04:43.907Z,0
2016-10-18T01:05:43.848Z,0
2016-10-18T01:06:43.939Z,0
2016-10-18T01:07:43.968Z,0
2016-10-18T01:08:44.031Z,0
2016-10-18T01:09:44.034Z,0
2016-10-18T01:10:45.135Z,0
2016-10-18T01:11:44.744Z,0
2016-10-18T01:12:44.764Z,0
2016-10-18T01:13:44.300Z,0
2016-10-18T01:14:44.361Z,0
2016-10-18T01:15:44.424Z,0
2016-10-18T01:16:44.474Z,0
2016-10-18T01:17:44.583Z,0
2016-10-18T01:18:44.573Z,0
2016-10-18T01:19:44.623Z,0
2016-10-18T01:20:44.708Z,0
2016-10-18T01:21:44.698Z,0
2016-10-18T01:22:44.815Z,0
2016-10-18T01:23:44.862Z,0
2016-10-18T01:24:44.872Z,0
2016-10-18T01:25:44.929Z,0
2016-10-18T01:26:44.962Z,0
2016-10-18T01:27:45.538Z,0
2016-10-18T01:28:45.117Z,0
2016-10-18T01:29:45.171Z,0
2016-10-18T01:30:45.216Z,0
2016-10-18T01:31:45.242Z,0
2016-10-18T01:32:45.369Z,0
2016-10-18T01:33:45.414Z,0
2016-10-18T01:34:45.993Z,0
2016-10-18T01:35:45.573Z,0
2016-10-18T01:36:45.519Z,0
2016-10-18T01:37:45.671Z,0
2016-10-18T01:38:45.652Z,0
2016-10-18T01:39:45.697Z,0
2016-10-18T01:40:45.764Z,0
2016-10-18T01:41:45.773Z,0
2016-10-18T01:42:45.923Z,0
2016-10-18T01:43:46.450Z,0
2016-10-18T01:44:45.937Z,0
2016-10-18T01:45:46.032Z,0
2016-10-18T01:46:46.096Z,0
2016-10-18T01:47:46.128Z,0
2016-10-18T01:48:46.305Z,0
2016-10-18T01:49:46.230Z,0
2016-10-18T01:50:46.779Z,0
2016-10-18T01:51:46.340Z,0
2016-10-18T01:52:46.385Z,0
2016-10-18T01:53:46.502Z,0
2016-10-18T01:54:47.066Z,0
2016-10-18T01:55:46.570Z,0
2016-10-18T01:56:46.629Z,0
2016-10-18T01:57:46.696Z,0
2016-10-18T01:58:46.679Z,0
2016-10-18T01:59:46.798Z,0
2016-10-18T02:00:46.869Z,0
2016-10-18T02:01:46.920Z,0
2016-10-18T02:02:46.917Z,0
2016-10-18T02:03:47.000Z,0
2016-10-18T02:04:47.132Z,0
2016-10-18T02:05:47.127Z,0
2016-10-18T02:06:47.148Z,0
2016-10-18T02:07:47.170Z,0
2016-10-18T02:08:47.288Z,0
2016-10-18T02:09:47.816Z,0
2016-10-18T02:10:47.372Z,0
2016-10-18T02:11:47.404Z,0
2016-10-18T02:12:47.490Z,0
2016-10-18T02:13:47.563Z,0
2016-10-18T02:14:47.588Z,0
2016-10-18T02:15:47.599Z,0
2016-10-18T02:16:47.739Z,0
2016-10-18T02:17:47.734Z,0
2016-10-18T02:18:47.784Z,0
2016-10-18T02:19:47.998Z,0
2016-10-18T02:20:47.948Z,0
2016-10-18T02:21:47.950Z,0
2016-10-18T02:22:48.024Z,0
2016-10-18T02:23:48.071Z,0
2016-10-18T02:24:48.087Z,0
2016-10-18T02:25:48.265Z,0
2016-10-18T02:26:48.223Z,0
2016-10-18T02:27:48.278Z,0
2016-10-18T02:28:48.318Z,0
2016-10-18T02:29:48.409Z,0
2016-10-18T02:30:48.387Z,0
2016-10-18T02:31:49.261Z,0
2016-10-18T02:32:48.560Z,0
2016-10-18T02:33:48.645Z,0
2016-10-18T02:34:48.643Z,0
2016-10-18T02:35:48.705Z,0
2016-10-18T02:36:48.801Z,0
2016-10-18T02:37:48.823Z,0
2016-10-18T02:38:48.880Z,0
2016-10-18T02:39:48.873Z,0
2016-10-18T02:40:48.986Z,0
2016-10-18T02:41:49.048Z,0
2016-10-18T02:42:49.134Z,0
2016-10-18T02:43:49.134Z,0
2016-10-18T02:44:49.175Z,0
2016-10-18T02:45:49.271Z,0
2016-10-18T02:46:49.328Z,0
2016-10-18T02:47:49.336Z,0
2016-10-18T02:48:49.421Z,0
2016-10-18T02:49:50.013Z,0
2016-10-18T02:50:49.495Z,0
2016-10-18T02:51:49.559Z,0
2016-10-18T02:52:49.591Z,0
2016-10-18T02:53:50.239Z,0
2016-10-18T02:54:49.769Z,0
2016-10-18T02:55:49.765Z,0
2016-10-18T02:56:49.907Z,0
2016-10-18T02:57:49.827Z,0
2016-10-18T02:58:49.985Z,0
2016-10-18T02:59:49.977Z,0
2016-10-18T03:00:50.006Z,0
2016-10-18T03:01:50.145Z,0
2016-10-18T03:02:50.229Z,0
2016-10-18T03:03:50.227Z,0
2016-10-18T03:04:50.335Z,0
2016-10-18T03:05:50.375Z,0
2016-10-18T03:06:50.343Z,0
2016-10-18T03:07:50.455Z,0
2016-10-18T03:08:50.516Z,0
2016-10-18T03:09:50.564Z,0
2016-10-18T03:10:50.586Z,0
2016-10-18T03:11:50.610Z,0
2016-10-18T03:12:50.655Z,0
2016-10-18T03:13:50.738Z,0
2016-10-18T03:14:50.818Z,0
2016-10-18T03:15:51.431Z,0
2016-10-18T03:16:51.431Z,0
2016-10-18T03:17:50.946Z,0
2016-10-18T03:18:51.543Z,0
2016-10-18T03:19:51.018Z,0
2016-10-18T03:20:51.091Z,0
2016-10-18T03:21:51.152Z,0
2016-10-18T03:22:51.801Z,0
2016-10-18T03:23:51.254Z,0
2016-10-18T03:24:51.811Z,0
2016-10-18T03:25:51.307Z,0
2016-10-18T03:26:51.462Z,0
2016-10-18T03:27:51.446Z,0
2016-10-18T03:28:51.580Z,0
2016-10-18T03:29:51.565Z,0
2016-10-18T03:30:51.672Z,0
2016-10-18T03:31:51.780Z,0
2016-10-18T03:32:51.701Z,0
2016-10-18T03:33:51.810Z,0
2016-10-18T03:34:51.820Z,0
2016-10-18T03:35:51.913Z,0
2016-10-18T03:36:51.997Z,0
2016-10-18T03:37:51.980Z,0
2016-10-18T03:38:52.100Z,0
2016-10-18T03:39:52.645Z,0
2016-10-18T03:40:52.295Z,0
2016-10-18T03:41:52.257Z,0
2016-10-18T03:42:52.793Z,0
2016-10-18T03:43:52.291Z,0
2016-10-18T03:44:52.850Z,0
2016-10-18T03:45:52.462Z,0
2016-10-18T03:46:52.482Z,0
2016-10-18T03:47:52.518Z,0
2016-10-18T03:48:52.626Z,0
2016-10-18T03:49:52.632Z,0
2016-10-18T03:50:52.692Z,0
2016-10-18T03:51:53.268Z,0
2016-10-18T03:52:52.798Z,0
2016-10-18T03:53:52.852Z,0
2016-10-18T03:54:52.904Z,0
2016-10-18T03:55:53.535Z,0
2016-10-18T03:56:53.038Z,0
2016-10-18T03:57:53.128Z,0
2016-10-18T03:58:53.112Z,0
2016-10-18T03:59:54.213Z,0
2016-10-18T04:00:53.281Z,0
2016-10-18T04:01:53.289Z,0
2016-10-18T04:02:53.296Z,0
2016-10-18T04:03:53.383Z,0
2016-10-18T04:04:53.515Z,0
2016-10-18T04:05:53.463Z,0
2016-10-18T04:06:54.050Z,0
2016-10-18T04:07:53.570Z,0
2016-10-18T04:08:53.731Z,0
2016-10-18T04:09:53.722Z,0
2016-10-18T04:10:54.274Z,0
2016-10-18T04:11:53.900Z,0
2016-10-18T04:12:53.845Z,0
2016-10-18T04:13:53.983Z,0
2016-10-18T04:14:54.021Z,0
2016-10-18T04:15:54.004Z,0
2016-10-18T04:16:54.092Z,0
2016-10-18T04:17:54.126Z,0
2016-10-18T04:18:54.214Z,0
2016-10-18T04:19:54.265Z,0
2016-10-18T04:20:54.261Z,0
2016-10-18T04:21:54.393Z,0
2016-10-18T04:22:54.447Z,0
2016-10-18T04:23:54.483Z,0
2016-10-18T04:24:54.505Z,0
2016-10-18T04:25:54.579Z,0
2016-10-18T04:26:54.590Z,0
2016-10-18T04:27:54.625Z,0
2016-10-18T04:28:54.705Z,0
2016-10-18T04:29:54.759Z,0
2016-10-18T04:30:54.804Z,0
2016-10-18T04:31:54.846Z,0
2016-10-18T04:32:54.934Z,0
2016-10-18T04:33:55.030Z,0
2016-10-18T04:34:55.091Z,0
2016-10-18T04:35:55.101Z,0
2016-10-18T04:36:55.191Z,0
2016-10-18T04:37:55.162Z,0
2016-10-18T04:38:55.255Z,0
2016-10-18T04:39:55.331Z,0
2016-10-18T04:40:55.860Z,0
2016-10-18T04:41:55.390Z,0
2016-10-18T04:42:55.386Z,0
2016-10-18T04:43:55.497Z,0
2016-10-18T04:44:55.570Z,0
2016-10-18T04:45:55.650Z,0
2016-10-18T04:46:55.664Z,0
2016-10-18T04:47:56.279Z,0
2016-10-18T04:48:55.756Z,0
2016-10-18T04:49:55.813Z,0
2016-10-18T04:50:56.485Z,0
2016-10-18T04:51:55.935Z,0
2016-10-18T04:52:55.980Z,0
2016-10-18T04:53:55.988Z,0
2016-10-18T04:54:56.104Z,0
2016-10-18T04:55:56.116Z,0
2016-10-18T04:56:56.255Z,0
2016-10-18T04:57:56.280Z,0
2016-10-18T04:58:56.307Z,0
2016-10-18T04:59:56.338Z,0
2016-10-18T05:00:56.453Z,0
2016-10-18T05:01:56.533Z,0
2016-10-18T05:02:56.538Z,0
2016-10-18T05:03:56.588Z,0
2016-10-18T05:04:56.677Z,0
2016-10-18T05:05:56.654Z,0
2016-10-18T05:06:56.708Z,0
2016-10-18T05:07:56.773Z,0
2016-10-18T05:08:56.890Z,0
2016-10-18T05:09:56.901Z,0
2016-10-18T05:10:56.948Z,0
2016-10-18T05:11:56.928Z,0
2016-10-18T05:12:57.632Z,0
2016-10-18T05:13:57.057Z,0
2016-10-18T05:14:57.133Z,0
2016-10-18T05:15:57.230Z,0
2016-10-18T05:16:57.283Z,0
2016-10-18T05:17:57.348Z,0
2016-10-18T05:18:57.367Z,0
2016-10-18T05:19:57.519Z,0
2016-10-18T05:20:57.447Z,0
2016-10-18T05:21:57.565Z,0
2016-10-18T05:22:57.558Z,0
2016-10-18T05:23:57.661Z,0
2016-10-18T05:24:58.223Z,0
2016-10-18T05:25:57.793Z,0
2016-10-18T05:26:57.757Z,0
2016-10-18T05:27:57.806Z,0
2016-10-18T05:28:57.953Z,0
2016-10-18T05:29:57.934Z,0
2016-10-18T05:30:58.076Z,0
2016-10-18T05:31:58.069Z,0
2016-10-18T05:32:58.124Z,0
2016-10-18T05:33:58.139Z,0
2016-10-18T05:34:58.187Z,0
2016-10-18T05:35:58.311Z,0
2016-10-18T05:36:58.309Z,0
2016-10-18T05:37:58.935Z,0
2016-10-18T05:38:58.456Z,0
2016-10-18T05:39:58.460Z,0
2016-10-18T05:40:58.589Z,0
2016-10-18T05:41:58.562Z,0
2016-10-18T05:42:58.651Z,0
2016-10-18T05:43:58.723Z,0
2016-10-18T05:44:59.238Z,0
2016-10-18T05:45:58.798Z,0
2016-10-18T05:46:58.901Z,0
2016-10-18T05:47:58.876Z,0
2016-10-18T05:49:00.365Z,0
2016-10-18T05:49:59.081Z,0
2016-10-18T05:50:59.043Z,0
2016-10-18T05:51:59.161Z,0
2016-10-18T05:52:59.124Z,0
2016-10-18T05:53:59.196Z,0
2016-10-18T05:54:59.306Z,0
2016-10-18T05:55:59.278Z,0
2016-10-18T05:56:59.419Z,0
2016-10-18T05:57:59.420Z,0
2016-10-18T05:58:59.960Z,0
2016-10-18T05:59:59.508Z,0
2016-10-18T06:00:59.627Z,0
2016-10-18T06:01:59.735Z,0
2016-10-18T06:02:59.697Z,0
2016-10-18T06:03:59.751Z,0
2016-10-18T06:04:59.803Z,0
2016-10-18T06:05:59.879Z,0
2016-10-18T06:07:00.461Z,0
2016-10-18T06:07:59.970Z,0
2016-10-18T06:08:59.990Z,0
2016-10-18T06:10:00.059Z,0
2016-10-18T06:11:00.164Z,0
2016-10-18T06:12:00.170Z,0
2016-10-18T06:13:00.219Z,0
2016-10-18T06:14:00.267Z,0
2016-10-18T06:15:00.320Z,0
2016-10-18T06:16:00.375Z,0
2016-10-18T06:17:00.489Z,0
2016-10-18T06:18:00.514Z,0
2016-10-18T06:19:00.580Z,0
2016-10-18T06:20:00.615Z,0
2016-10-18T06:21:00.692Z,0
2016-10-18T06:22:00.692Z,0
2016-10-18T06:23:00.773Z,0
2016-10-18T06:24:00.779Z,0
2016-10-18T06:25:01.428Z,0
2016-10-18T06:26:00.967Z,0
2016-10-18T06:27:00.968Z,0
2016-10-18T06:28:01.058Z,0
2016-10-18T06:29:01.064Z,0
2016-10-18T06:30:01.183Z,0
2016-10-18T06:31:01.218Z,0
2016-10-18T06:32:01.293Z,0
2016-10-18T06:33:01.329Z,0
2016-10-18T06:34:01.316Z,0
2016-10-18T06:35:02.047Z,0
2016-10-18T06:36:01.487Z,0
2016-10-18T06:37:01.528Z,0
2016-10-18T06:38:01.589Z,0
2016-10-18T06:39:01.716Z,0
2016-10-18T06:40:01.675Z,0
2016-10-18T06:41:01.720Z,0
2016-10-18T06:42:01.806Z,0
2016-10-18T06:43:01.985Z,0
2016-10-18T06:44:01.975Z,0
2016-10-18T06:45:02.602Z,0
2016-10-18T06:46:02.168Z,0
2016-10-18T06:47:02.809Z,0
2016-10-18T06:48:02.151Z,0
2016-10-18T06:49:02.143Z,0
2016-10-18T06:50:02.910Z,0
2016-10-18T06:51:02.276Z,0
2016-10-18T06:52:02.420Z,0
2016-10-18T06:53:02.648Z,0
2016-10-18T06:54:02.404Z,0
2016-10-18T06:55:02.450Z,0
2016-10-18T06:56:02.635Z,0
2016-10-18T06:57:02.592Z,0
2016-10-18T06:58:02.627Z,0
2016-10-18T06:59:02.685Z,0
2016-10-18T07:00:02.832Z,0
2016-10-18T07:01:02.887Z,0
2016-10-18T07:02:02.847Z,0
2016-10-18T07:03:03.039Z,0
2016-10-18T07:04:03.156Z,0
2016-10-18T07:05:03.516Z,0
2016-10-18T07:06:03.166Z,0
2016-10-18T07:07:03.109Z,0
2016-10-18T07:08:03.290Z,0
2016-10-18T07:09:03.362Z,0
2016-10-18T07:10:03.412Z,0
2016-10-18T07:11:03.415Z,0
2016-10-18T07:12:03.419Z,0
2016-10-18T07:13:03.521Z,0
2016-10-18T07:14:35.152Z,0
2016-10-18T07:16:06.907Z,0
2016-10-18T07:16:49.416Z,0
2016-10-18T07:18:21.296Z,0
2016-10-18T07:18:32.174Z,0
2016-10-18T07:19:32.220Z,0
2016-10-18T07:20:32.234Z,0
2016-10-18T07:21:32.365Z,0
2016-10-18T07:22:32.353Z,0
2016-10-18T07:23:32.395Z,0
2016-10-18T07:24:32.471Z,0
2016-10-18T07:25:32.482Z,0
2016-10-18T07:26:32.609Z,0
2016-10-18T07:27:32.636Z,0
2016-10-18T07:28:32.644Z,0
2016-10-18T07:29:32.682Z,0
2016-10-18T07:30:32.756Z,0
2016-10-18T07:31:32.935Z,0
2016-10-18T07:32:32.869Z,0
2016-10-18T07:33:32.904Z,0
2016-10-18T07:34:32.990Z,0
2016-10-18T07:35:33.050Z,0
2016-10-18T07:36:33.082Z,0
2016-10-18T07:37:33.123Z,0
2016-10-18T07:38:33.219Z,0
2016-10-18T07:39:33.249Z,0
2016-10-18T07:40:33.876Z,0
2016-10-18T07:41:33.362Z,0
2016-10-18T07:42:33.927Z,0
2016-10-18T07:43:33.457Z,0
2016-10-18T07:44:33.498Z,0
2016-10-18T07:45:33.612Z,0
2016-10-18T07:46:33.641Z,0
2016-10-18T07:47:33.765Z,0
2016-10-18T07:48:34.230Z,0
2016-10-18T07:49:33.843Z,0
2016-10-18T07:50:33.843Z,0
2016-10-18T07:51:33.925Z,0
2016-10-18T07:52:34.021Z,0
2016-10-18T07:53:34.031Z,0
2016-10-18T07:54:34.059Z,0
2016-10-18T07:55:34.100Z,0
2016-10-18T07:56:34.169Z,0
2016-10-18T07:57:34.160Z,0
2016-10-18T07:58:34.274Z,0
2016-10-18T07:59:34.384Z,0
2016-10-18T08:00:34.420Z,0
2016-10-18T08:01:34.422Z,0
2016-10-18T08:02:34.481Z,0
2016-10-18T08:03:34.582Z,0
2016-10-18T08:04:34.692Z,0
2016-10-18T08:05:34.657Z,0
2016-10-18T08:06:34.683Z,0
2016-10-18T08:07:34.876Z,0
2016-10-18T08:08:35.376Z,0
2016-10-18T08:09:35.906Z,0
2016-10-18T08:10:34.861Z,0
2016-10-18T08:11:34.976Z,0
2016-10-18T08:12:35.128Z,0
2016-10-18T08:13:35.057Z,0
2016-10-18T08:14:35.114Z,0
2016-10-18T08:15:35.143Z,0
2016-10-18T08:16:35.901Z,0
2016-10-18T08:17:35.330Z,0
2016-10-18T08:18:35.298Z,0
2016-10-18T08:19:35.413Z,0
2016-10-18T08:20:35.430Z,0
2016-10-18T08:21:35.519Z,0
2016-10-18T08:22:35.603Z,0
2016-10-18T08:23:35.617Z,0
2016-10-18T08:24:36.169Z,0
2016-10-18T08:25:36.285Z,0
2016-10-18T08:26:36.290Z,0
2016-10-18T08:27:35.769Z,0
2016-10-18T08:28:36.989Z,0
2016-10-18T08:29:35.972Z,0
2016-10-18T08:30:35.990Z,0
2016-10-18T08:31:36.007Z,0
2016-10-18T08:32:36.127Z,5
2016-10-18T08:33:36.141Z,5
2016-10-18T08:34:36.183Z,5
2016-10-18T08:35:36.242Z,5
2016-10-18T08:36:36.371Z,5
2016-10-18T08:37:36.420Z,5
2016-10-18T08:38:36.415Z,10
2016-10-18T08:39:36.995Z,10
2016-10-18T08:40:37.605Z,10
2016-10-18T08:41:36.546Z,15
2016-10-18T08:42:36.642Z,15
2016-10-18T08:43:36.652Z,15
2016-10-18T08:44:36.697Z,15
2016-10-18T08:45:36.834Z,20
2016-10-18T08:46:36.912Z,20
2016-10-18T08:47:37.441Z,20
2016-10-18T08:48:37.521Z,20
2016-10-18T08:49:37.539Z,25
2016-10-18T08:50:37.078Z,25
2016-10-18T08:51:37.328Z,25
2016-10-18T08:52:37.231Z,30
2016-10-18T08:53:37.236Z,30
2016-10-18T08:54:37.503Z,30
2016-10-18T08:55:38.148Z,30
2016-10-18T08:56:38.652Z,35
2016-10-18T08:57:38.850Z,35
2016-10-18T08:58:47.826Z,35
2016-10-18T08:59:40.620Z,35
2016-10-18T09:00:52.488Z,40
2016-10-18T09:01:40.641Z,40
2016-10-18T09:02:41.563Z,40
2016-10-18T09:03:48.720Z,45
2016-10-18T09:04:41.735Z,45
2016-10-18T09:05:42.708Z,45
2016-10-18T09:06:43.565Z,50
2016-10-18T09:07:41.602Z,50
2016-10-18T09:10:11.634Z,55
2016-10-18T09:11:09.485Z,55
2016-10-18T09:11:48.474Z,55
2016-10-18T09:12:44.524Z,55
2016-10-18T09:14:15.563Z,70
2016-10-18T09:19:53.728Z,115
2016-10-18T09:20:04.646Z,115
2016-10-18T09:21:04.688Z,170
2016-10-18T09:22:04.700Z,245
2016-10-18T09:23:04.747Z,200
2016-10-18T09:24:04.787Z,135
2016-10-18T09:25:04.837Z,95
2016-10-18T09:26:04.947Z,85
2016-10-18T09:27:04.920Z,85
2016-10-18T09:28:05.570Z,80
2016-10-18T09:29:05.600Z,75
2016-10-18T09:30:05.132Z,75
2016-10-18T09:31:05.145Z,80
2016-10-18T09:32:05.308Z,80
2016-10-18T09:33:05.778Z,85
2016-10-18T09:34:05.913Z,90
2016-10-18T09:35:05.913Z,100
2016-10-18T09:36:05.427Z,110
2016-10-18T09:37:05.460Z,110
2016-10-18T09:38:05.764Z,115
2016-10-18T09:39:05.553Z,125
2016-10-18T09:40:05.709Z,150
2016-10-18T09:41:05.746Z,170
2016-10-18T09:42:05.777Z,170
2016-10-18T09:43:06.012Z,185
2016-10-18T09:44:06.116Z,240
2016-10-18T09:45:08.211Z,285
2016-10-18T09:46:06.895Z,240
2016-10-18T09:47:06.071Z,180
2016-10-18T09:48:06.055Z,160
2016-10-18T09:49:08.030Z,170
2016-10-18T09:50:08.024Z,200
2016-10-18T09:51:07.064Z,210
2016-10-18T09:52:08.042Z,225
2016-10-18T09:53:07.954Z,180
2016-10-18T09:54:07.995Z,170
2016-10-18T09:55:09.026Z,150
2016-10-18T09:56:09.874Z,170
2016-10-18T09:57:59.779Z,195
2016-10-18T09:58:14.788Z,190
2016-10-18T09:59:13.717Z,160
2016-10-18T10:00:15.829Z,165
2016-10-18T10:01:15.031Z,155
2016-10-18T10:03:17.926Z,180
2016-10-18T10:03:37.881Z,190
2016-10-18T10:05:32.761Z,255
2016-10-18T10:07:03.846Z,255
2016-10-18T10:09:32.807Z,310
2016-10-18T10:11:19.774Z,305
2016-10-18T10:12:23.943Z,250
2016-10-18T10:12:48.895Z,245
2016-10-18T10:14:08.864Z,190
2016-10-18T10:15:25.805Z,155
2016-10-18T10:16:25.750Z,145
2016-10-18T10:17:18.779Z,145
2016-10-18T10:19:57.786Z,150
2016-10-18T10:23:32.781Z,145
2016-10-18T10:27:47.737Z,135
2016-10-18T10:28:34.784Z,125
2016-10-18T10:32:02.909Z,120
2016-10-18T10:32:32.729Z,120
2016-10-18T10:34:02.764Z,120
2016-10-18T10:35:45.873Z,115
2016-10-18T10:37:06.825Z,115
2016-10-18T10:37:52.994Z,115
2016-10-18T10:39:04.764Z,110
2016-10-18T10:40:10.826Z,110
2016-10-18T10:40:25.845Z,110
2016-10-18T10:41:27.922Z,110
2016-10-18T10:42:47.875Z,110
2016-10-18T10:43:26.931Z,110
2016-10-18T10:44:49.996Z,105
2016-10-18T10:45:27.863Z,105
2016-10-18T10:46:26.040Z,105
2016-10-18T10:47:24.916Z,105
2016-10-18T10:48:26.943Z,100
2016-10-18T10:49:24.986Z,100
2016-10-18T10:50:25.016Z,105
2016-10-18T10:51:23.846Z,100
2016-10-18T10:52:23.878Z,100
2016-10-18T10:53:37.890Z,100
2016-10-18T10:54:25.850Z,100
2016-10-18T10:55:27.043Z,105
2016-10-18T10:56:25.986Z,105
2016-10-18T10:57:24.855Z,110
2016-10-18T10:58:28.152Z,110
2016-10-18T10:59:24.344Z,120
2016-10-18T11:00:24.963Z,120
2016-10-18T11:01:25.831Z,120
2016-10-18T11:02:24.399Z,135
2016-10-18T11:03:32.902Z,160
2016-10-18T11:04:26.032Z,170
2016-10-18T11:05:25.042Z,175
2016-10-18T11:06:24.935Z,185
2016-10-18T11:07:25.031Z,190
2016-10-18T11:08:28.869Z,195
2016-10-18T11:09:24.084Z,200
2016-10-18T11:10:25.019Z,210
2016-10-18T11:11:24.748Z,215
2016-10-18T11:12:26.069Z,215
2016-10-18T11:14:47.832Z,215
2016-10-18T11:15:27.088Z,215
2016-10-18T11:16:26.979Z,215
2016-10-18T11:17:27.155Z,215
2016-10-18T11:18:27.906Z,215
2016-10-18T11:19:58.916Z,220
2016-10-18T11:20:27.725Z,220
2016-10-18T11:21:26.936Z,220
2016-10-18T11:22:29.861Z,225
2016-10-18T11:23:25.369Z,220
2016-10-18T11:24:27.941Z,225
2016-10-18T11:25:29.898Z,225
2016-10-18T11:26:29.503Z,225
2016-10-18T11:36:21.934Z,215
2016-10-18T11:36:54.649Z,215
2016-10-18T11:37:53.424Z,215
2016-10-18T11:38:54.682Z,215
2016-10-18T11:40:01.784Z,215
2016-10-18T11:40:53.469Z,210
2016-10-18T11:41:55.018Z,210
2016-10-18T11:42:54.595Z,210
2016-10-18T11:43:53.995Z,210
2016-10-18T11:45:01.911Z,205
2016-10-18T11:48:00.941Z,205
2016-10-18T11:48:52.812Z,200
2016-10-18T11:49:48.858Z,200
2016-10-18T11:51:04.923Z,200
2016-10-18T11:52:11.865Z,200
2016-10-18T11:54:09.016Z,195
2016-10-18T11:56:23.846Z,195
2016-10-18T11:56:41.830Z,190
2016-10-18T12:00:13.824Z,190
2016-10-18T12:00:31.755Z,190
2016-10-18T12:02:00.805Z,195
2016-10-18T12:03:41.876Z,190
2016-10-18T12:04:57.843Z,190
2016-10-18T12:05:15.799Z,190
2016-10-18T12:07:32.881Z,190
2016-10-18T12:11:11.822Z,190
2016-10-18T12:12:06.927Z,195
2016-10-18T12:12:32.357Z,195
2016-10-18T12:13:32.592Z,195
2016-10-18T12:14:32.229Z,185
2016-10-18T12:15:32.814Z,160
2016-10-18T12:16:33.719Z,140
2016-10-18T12:17:32.638Z,140
2016-10-18T12:18:37.280Z,150
2016-10-18T12:19:33.676Z,160
2016-10-18T12:20:31.508Z,170
2016-10-18T12:21:32.409Z,170
2016-10-18T12:22:33.087Z,165
2016-10-18T12:23:33.194Z,155
2016-10-18T12:24:31.221Z,150
2016-10-18T12:25:31.468Z,145
2016-10-18T12:26:31.332Z,150
2016-10-18T12:27:31.982Z,155
2016-10-18T12:28:33.651Z,150
2016-10-18T12:29:34.712Z,150
2016-10-18T12:30:37.544Z,160
2016-10-18T12:31:34.653Z,165
2016-10-18T12:32:34.747Z,160
2016-10-18T12:33:35.834Z,165
2016-10-18T12:34:40.633Z,180
2016-10-18T12:35:37.605Z,175
2016-10-18T12:36:33.517Z,170
2016-10-18T12:37:41.454Z,180
2016-10-18T12:38:34.839Z,180
2016-10-18T12:39:49.640Z,185
2016-10-18T12:41:28.472Z,185
2016-10-18T12:41:45.552Z,185
2016-10-18T12:44:15.652Z,180
2016-10-18T12:44:45.471Z,180
2016-10-18T12:47:25.647Z,185
2016-10-18T12:48:00.503Z,185
2016-10-18T12:48:45.571Z,190
2016-10-18T12:54:34.545Z,190
2016-10-18T12:54:52.644Z,190
2016-10-18T12:58:35.511Z,175
2016-10-18T13:02:07.714Z,180
2016-10-18T13:04:22.651Z,180
2016-10-18T13:05:14.442Z,175
2016-10-18T13:05:52.603Z,175
2016-10-18T13:17:24.552Z,175
2016-10-18T13:19:37.563Z,180
2016-10-18T13:23:41.484Z,175
2016-10-18T13:24:54.555Z,170
2016-10-18T13:25:23.502Z,175
2016-10-18T13:26:52.471Z,165
2016-10-18T13:29:19.532Z,165
2016-10-18T13:30:10.629Z,160
2016-10-18T13:31:10.884Z,165
2016-10-18T13:31:42.558Z,165
2016-10-18T13:32:50.670Z,160
2016-10-18T13:34:09.668Z,165
2016-10-18T13:34:40.604Z,160
2016-10-18T13:36:11.578Z,155
2016-10-18T13:38:15.776Z,155
2016-10-18T13:39:11.756Z,155
2016-10-18T13:40:08.472Z,155
2016-10-18T13:40:53.607Z,155
2016-10-18T13:42:05.487Z,155
2016-10-18T13:43:04.612Z,155
2016-10-18T13:43:39.658Z,155
2016-10-18T13:45:12.686Z,150
2016-10-18T13:45:42.554Z,150
2016-10-18T13:46:46.700Z,150
2016-10-18T13:47:42.682Z,145
2016-10-18T13:48:42.773Z,145
2016-10-18T13:49:41.566Z,145
2016-10-18T13:50:47.591Z,140
2016-10-18T13:51:38.591Z,135
2016-10-18T13:52:42.631Z,135
2016-10-18T13:53:41.868Z,140
2016-10-18T13:54:40.481Z,130
2016-10-18T13:55:42.561Z,130
2016-10-18T13:56:53.682Z,130
2016-10-18T13:57:54.585Z,140
2016-10-18T13:58:52.689Z,140
2016-10-18T13:59:42.620Z,140
2016-10-18T14:01:13.773Z,140
2016-10-18T14:01:42.638Z,140
2016-10-18T14:02:41.634Z,140
2016-10-18T14:04:43.714Z,140
2016-10-18T14:04:57.645Z,140
2016-10-18T14:06:02.587Z,140
2016-10-18T14:07:03.527Z,135
2016-10-18T14:08:03.635Z,135
2016-10-18T14:08:58.830Z,135
2016-10-18T14:09:58.536Z,130
2016-10-18T14:11:08.656Z,130
2016-10-18T14:11:59.609Z,120
2016-10-18T14:13:21.717Z,120
2016-10-18T14:15:08.555Z,130
2016-10-18T14:17:20.662Z,130
2016-10-18T14:18:38.663Z,130
2016-10-18T14:21:06.547Z,120
2016-10-18T14:22:33.868Z,125
2016-10-18T14:23:34.321Z,125
2016-10-18T14:24:33.414Z,130
2016-10-18T14:25:34.366Z,125
2016-10-18T14:26:34.976Z,125
2016-10-18T14:27:34.509Z,125
2016-10-18T14:28:33.177Z,125
2016-10-18T14:29:34.661Z,125
2016-10-18T14:30:33.878Z,125
2016-10-18T14:31:34.401Z,125
2016-10-18T14:32:33.514Z,125
2016-10-18T14:33:32.961Z,125
2016-10-18T14:34:34.634Z,125
2016-10-18T14:35:33.832Z,120
2016-10-18T14:36:34.262Z,120
2016-10-18T14:37:35.210Z,120
2016-10-18T14:38:33.814Z,120
2016-10-18T14:39:35.706Z,120
2016-10-18T14:40:33.936Z,120
2016-10-18T14:41:34.949Z,120
2016-10-18T14:42:34.285Z,120
2016-10-18T14:43:34.737Z,120
2016-10-18T14:44:34.439Z,115
2016-10-18T14:45:34.956Z,115
2016-10-18T14:46:34.699Z,115
2016-10-18T14:47:35.623Z,115
2016-10-18T14:48:34.983Z,115
2016-10-18T14:49:35.274Z,115
2016-10-18T14:50:35.077Z,115
2016-10-18T14:51:35.352Z,115
2016-10-18T14:52:35.900Z,115
2016-10-18T14:53:35.546Z,115
2016-10-18T14:54:37.511Z,115
2016-10-18T14:55:36.202Z,115
2016-10-18T14:56:36.995Z,115
2016-10-18T14:57:36.703Z,115
2016-10-18T14:58:36.928Z,115
2016-10-18T15:19:17.894Z,105
2016-10-18T15:19:35.849Z,105
2016-10-18T15:20:35.919Z,105
2016-10-18T15:21:36.045Z,105
2016-10-18T15:22:36.104Z,105
2016-10-18T15:23:36.202Z,105
2016-10-18T15:24:36.166Z,105
2016-10-18T15:25:36.762Z,105
2016-10-18T15:26:37.371Z,105
2016-10-18T15:27:36.415Z,105
2016-10-18T15:28:36.932Z,105
2016-10-18T15:29:36.455Z,105
2016-10-18T15:30:36.655Z,105
2016-10-18T15:31:36.787Z,105
2016-10-18T15:32:36.655Z,105
2016-10-18T15:33:36.752Z,105
2016-10-18T15:34:36.871Z,105
2016-10-18T15:35:36.880Z,110
2016-10-18T15:36:36.882Z,110
2016-10-18T15:37:37.516Z,110
2016-10-18T15:38:37.126Z,110
2016-10-18T15:39:37.716Z,115
2016-10-18T15:40:37.242Z,110
2016-10-18T15:41:37.746Z,110
2016-10-18T15:42:37.243Z,110
2016-10-18T15:43:37.880Z,110
2016-10-18T15:44:38.084Z,115
2016-10-18T15:45:37.994Z,115
2016-10-18T15:46:38.119Z,120
2016-10-18T15:47:38.121Z,120
2016-10-18T15:48:38.189Z,120
2016-10-18T15:49:37.737Z,120
2016-10-18T15:50:37.761Z,120
2016-10-18T15:51:37.873Z,120
2016-10-18T15:52:37.855Z,120
2016-10-18T15:53:38.543Z,120
2016-10-18T15:54:37.967Z,120
2016-10-18T15:55:38.622Z,120
2016-10-18T15:56:38.690Z,120